Time;durP1;ratioP1;P1;durP2;ratioP2;P2;SDS_P1;SDS_P2;PMS_P1;PMS_P2;Temp;Humidity;BMP_temperature;BMP_pressure;BME280_temperature;BME280_humidity;BME280_pressure;Samples;Min_cycle;Max_cycle;Signal;HPM_P1;HPM_P2
2023/12/29 00:01:35;;;;;;;6.35;1.30;;;;;;;;;;5013243;28;20622;-84
2023/12/29 00:04:05;;;;;;;5.90;1.10;;;;;;;;;;5005420;28;20242;-82
2023/12/29 00:06:35;;;;;;;6.82;1.27;;;;;;;;;;5004095;28;20198;-85
2023/12/29 00:09:05;;;;;;;5.78;1.08;;;;;;;;;;5004951;28;20205;-82
2023/12/29 00:11:35;;;;;;;4.30;1.23;;;;;;;;;;5004120;28;20623;-85
2023/12/29 00:14:08;;;;;;;5.55;1.05;;;;;;;;;;5002704;28;20200;-82
2023/12/29 00:16:39;;;;;;;6.00;1.10;;;;;;;;;;4999594;28;20231;-82
2023/12/29 00:19:09;;;;;;;5.75;1.20;;;;;;;;;;5000817;28;20249;-81
2023/12/29 00:21:39;;;;;;;4.07;1.20;;;;;;;;;;4993947;28;20218;-84
2023/12/29 00:24:09;;;;;;;4.20;1.10;;;;;;;;;;4992497;28;20213;-84
2023/12/29 00:26:39;;;;;;;4.88;1.30;;;;;;;;;;4992297;28;20659;-80
2023/12/29 00:29:09;;;;;;;4.20;1.10;;;;;;;;;;4996803;28;20203;-81
2023/12/29 00:31:41;;;;;;;4.15;1.13;;;;;;;;;;4991770;28;20787;-82
2023/12/29 00:34:11;;;;;;;5.20;1.13;;;;;;;;;;4992193;28;20198;-80
2023/12/29 00:36:41;;;;;;;3.08;1.00;;;;;;;;;;4992088;28;20234;-82
2023/12/29 00:39:11;;;;;;;3.22;1.05;;;;;;;;;;4992661;28;20210;-85
2023/12/29 00:41:41;;;;;;;3.60;0.88;;;;;;;;;;4992539;28;20203;-83
2023/12/29 00:44:10;;;;;;;4.40;1.10;;;;;;;;;;4993221;28;20199;-83
2023/12/29 00:46:42;;;;;;;4.85;1.13;;;;;;;;;;4993989;28;20214;-82
2023/12/29 00:49:12;;;;;;;4.95;1.23;;;;;;;;;;4994014;28;20568;-84
2023/12/29 00:51:43;;;;;;;5.85;1.08;;;;;;;;;;5001607;28;20194;-85
2023/12/29 00:54:13;;;;;;;4.38;1.20;;;;;;;;;;5022331;28;20195;-84
2023/12/29 00:56:43;;;;;;;4.00;1.17;;;;;;;;;;5021887;28;20249;-85
2023/12/29 00:59:13;;;;;;;6.38;1.40;;;;;;;;;;5015264;28;20202;-84
2023/12/29 01:01:46;;;;;;;5.03;1.13;;;;;;;;;;5012871;28;20286;-81
2023/12/29 01:04:15;;;;;;;4.82;1.30;;;;;;;;;;5001879;28;20211;-81
2023/12/29 01:06:45;;;;;;;6.97;1.40;;;;;;;;;;5014289;28;20222;-82
2023/12/29 01:09:15;;;;;;;4.20;1.60;;;;;;;;;;5015909;28;20733;-82
2023/12/29 01:11:45;;;;;;;6.30;1.70;;;;;;;;;;5014655;28;20217;-82
2023/12/29 01:14:15;;;;;;;10.00;1.50;;;;;;;;;;5014538;28;20203;-83
2023/12/29 01:16:47;;;;;;;6.50;1.30;;;;;;;;;;5014966;28;20234;-83
2023/12/29 01:19:17;;;;;;;7.05;1.67;;;;;;;;;;5014929;28;20198;-83
2023/12/29 01:21:47;;;;;;;6.18;1.70;;;;;;;;;;5016519;28;20202;-81
2023/12/29 01:24:17;;;;;;;8.07;1.42;;;;;;;;;;5017988;28;20213;-83
2023/12/29 01:26:47;;;;;;;5.72;1.27;;;;;;;;;;5015066;28;20207;-83
2023/12/29 01:29:17;;;;;;;5.00;1.33;;;;;;;;;;5016372;28;20210;-81
2023/12/29 01:31:49;;;;;;;7.75;1.52;;;;;;;;;;5016725;28;20203;-83
2023/12/29 01:34:19;;;;;;;4.35;1.17;;;;;;;;;;5016601;28;20195;-81
2023/12/29 01:36:49;;;;;;;12.07;1.80;;;;;;;;;;5008120;28;20233;-83
2023/12/29 01:39:19;;;;;;;6.85;1.50;;;;;;;;;;5009150;28;20209;-81
2023/12/29 01:41:49;;;;;;;4.90;1.50;;;;;;;;;;5016180;28;20198;-83
2023/12/29 01:44:22;;;;;;;6.32;1.50;;;;;;;;;;5016315;28;20207;-82
2023/12/29 01:46:56;;;;;;;7.47;1.58;;;;;;;;;;5016337;28;20194;-81
2023/12/29 01:49:26;;;;;;;8.52;1.75;;;;;;;;;;5015837;28;20228;-85
2023/12/29 01:51:58;;;;;;;6.07;1.50;;;;;;;;;;5012786;28;20217;-83
2023/12/29 01:54:29;;;;;;;5.75;1.52;;;;;;;;;;5013693;28;20658;-79
2023/12/29 01:57:00;;;;;;;6.00;1.60;;;;;;;;;;5014769;28;20242;-79
2023/12/29 01:59:31;;;;;;;8.48;1.60;;;;;;;;;;5016205;28;20195;-81
2023/12/29 02:02:05;;;;;;;9.18;1.80;;;;;;;;;;5014964;28;20667;-81
2023/12/29 02:04:36;;;;;;;5.88;1.70;;;;;;;;;;5016056;28;20190;-80
2023/12/29 02:07:06;;;;;;;9.05;1.67;;;;;;;;;;5016279;28;20677;-79
2023/12/29 02:09:37;;;;;;;5.32;1.58;;;;;;;;;;5016289;28;20214;-80
2023/12/29 02:12:07;;;;;;;12.23;1.77;;;;;;;;;;5015817;28;20194;-80
2023/12/29 02:14:37;;;;;;;4.63;1.33;;;;;;;;;;5015931;28;20198;-81
2023/12/29 02:17:14;;;;;;;8.23;1.58;;;;;;;;;;5018474;28;20230;-80
2023/12/29 02:19:44;;;;;;;9.30;1.90;;;;;;;;;;5016237;28;20232;-81
2023/12/29 02:22:14;;;;;;;7.53;1.63;;;;;;;;;;5015761;28;20207;-81
2023/12/29 02:24:49;;;;;;;6.43;1.42;;;;;;;;;;5015910;28;20203;-79
2023/12/29 02:27:34;;;;;;;4.60;1.58;;;;;;;;;;5015559;28;20560;-81
2023/12/29 02:30:09;;;;;;;7.00;1.73;;;;;;;;;;5015961;28;20191;-80
2023/12/29 02:32:41;;;;;;;11.63;1.80;;;;;;;;;;5015764;28;20655;-81
2023/12/29 02:35:12;;;;;;;6.57;1.80;;;;;;;;;;5015648;28;20674;-82
2023/12/29 02:37:42;;;;;;;7.55;1.70;;;;;;;;;;5015601;28;20219;-81
2023/12/29 02:40:15;;;;;;;6.32;2.05;;;;;;;;;;5015526;28;20206;-81
2023/12/29 02:42:49;;;;;;;7.30;1.70;;;;;;;;;;5015589;28;20195;-81
2023/12/29 02:45:21;;;;;;;6.28;1.58;;;;;;;;;;5015514;28;20206;-82
2023/12/29 02:47:51;;;;;;;8.73;1.80;;;;;;;;;;5015862;28;20690;-80
2023/12/29 02:50:21;;;;;;;4.25;1.27;;;;;;;;;;5015782;28;20202;-81
2023/12/29 02:52:54;;;;;;;6.05;2.22;;;;;;;;;;5012985;28;20210;-81
2023/12/29 02:55:26;;;;;;;8.05;1.70;;;;;;;;;;5014045;28;20248;-81
2023/12/29 02:57:56;;;;;;;7.05;1.58;;;;;;;;;;5015260;28;20260;-81
2023/12/29 03:00:26;;;;;;;8.77;1.88;;;;;;;;;;5015622;28;20238;-81
2023/12/29 03:02:56;;;;;;;7.35;1.48;;;;;;;;;;5015404;28;20203;-80
2023/12/29 03:05:26;;;;;;;7.25;1.50;;;;;;;;;;5015048;28;20203;-81
2023/12/29 03:07:55;;;;;;;9.23;1.75;;;;;;;;;;5015379;28;20202;-81
2023/12/29 03:10:27;;;;;;;7.40;1.70;;;;;;;;;;5015128;28;20217;-81
2023/12/29 03:12:57;;;;;;;9.90;1.70;;;;;;;;;;5019352;28;20254;-82
2023/12/29 03:15:27;;;;;;;9.50;1.60;;;;;;;;;;5015607;28;20229;-81
2023/12/29 03:17:57;;;;;;;9.77;1.80;;;;;;;;;;5014952;28;20325;-81
2023/12/29 03:20:27;;;;;;;7.60;1.50;;;;;;;;;;5015026;28;20203;-80
2023/12/29 03:23:00;;;;;;;9.45;1.60;;;;;;;;;;5014828;28;20242;-81
2023/12/29 03:25:32;;;;;;;8.05;1.77;;;;;;;;;;5027162;28;20681;-80
2023/12/29 03:28:02;;;;;;;9.88;1.90;;;;;;;;;;4998733;28;20726;-81
2023/12/29 03:30:32;;;;;;;7.28;1.67;;;;;;;;;;5012361;28;20205;-81
2023/12/29 03:33:01;;;;;;;5.57;1.50;;;;;;;;;;5014739;28;20209;-82
2023/12/29 03:35:31;;;;;;;8.00;1.40;;;;;;;;;;5014166;28;20199;-81
2023/12/29 03:38:02;;;;;;;6.45;1.55;;;;;;;;;;5014009;28;20309;-82
2023/12/29 03:40:34;;;;;;;7.68;1.80;;;;;;;;;;5014513;28;20238;-81
2023/12/29 03:43:04;;;;;;;6.10;1.50;;;;;;;;;;5014278;28;20651;-82
2023/12/29 03:45:34;;;;;;;8.80;1.63;;;;;;;;;;5014082;28;20203;-83
2023/12/29 03:48:04;;;;;;;5.88;1.60;;;;;;;;;;5014406;28;20215;-82
2023/12/29 03:50:34;;;;;;;6.93;1.52;;;;;;;;;;5014400;28;20233;-81
2023/12/29 03:53:04;;;;;;;9.05;1.70;;;;;;;;;;5013793;28;20198;-82
2023/12/29 03:55:35;;;;;;;7.93;1.50;;;;;;;;;;5010211;28;20785;-83
2023/12/29 03:58:06;;;;;;;6.22;1.50;;;;;;;;;;4998489;28;20274;-81
2023/12/29 04:00:36;;;;;;;7.72;1.60;;;;;;;;;;5005607;28;20207;-82
2023/12/29 04:03:06;;;;;;;8.13;1.95;;;;;;;;;;5012589;28;20202;-81
2023/12/29 04:05:35;;;;;;;10.98;1.50;;;;;;;;;;5013832;28;20213;-81
2023/12/29 04:08:05;;;;;;;9.10;2.05;;;;;;;;;;5013275;28;20202;-81
2023/12/29 04:10:39;;;;;;;10.02;1.48;;;;;;;;;;5013604;28;20230;-82
2023/12/29 04:13:09;;;;;;;7.43;1.73;;;;;;;;;;5013492;28;20199;-81
2023/12/29 04:15:39;;;;;;;7.93;1.95;;;;;;;;;;5013362;28;20199;-82
2023/12/29 04:18:09;;;;;;;7.22;1.73;;;;;;;;;;5016416;28;20229;-82
2023/12/29 04:20:39;;;;;;;7.80;1.60;;;;;;;;;;5013461;28;20654;-81
2023/12/29 04:23:09;;;;;;;8.18;1.60;;;;;;;;;;5013523;28;20225;-83
2023/12/29 04:25:41;;;;;;;7.38;1.88;;;;;;;;;;5012153;28;20205;-82
2023/12/29 04:28:11;;;;;;;7.50;1.98;;;;;;;;;;5010780;28;20210;-82
2023/12/29 04:30:41;;;;;;;6.70;1.60;;;;;;;;;;5013497;28;20213;-82
2023/12/29 04:33:11;;;;;;;7.78;1.55;;;;;;;;;;5013724;28;20213;-81
2023/12/29 04:35:43;;;;;;;7.05;1.70;;;;;;;;;;5008442;28;20206;-80
2023/12/29 04:38:13;;;;;;;7.65;1.48;;;;;;;;;;5010739;28;20313;-80
2023/12/29 04:40:44;;;;;;;7.53;1.70;;;;;;;;;;5013698;28;20213;-80
2023/12/29 04:43:14;;;;;;;8.05;2.03;;;;;;;;;;5013136;28;20195;-82
2023/12/29 04:45:44;;;;;;;9.50;1.70;;;;;;;;;;5011846;28;20207;-81
2023/12/29 04:48:14;;;;;;;7.00;1.65;;;;;;;;;;5013249;28;20210;-81
2023/12/29 04:50:44;;;;;;;6.80;1.48;;;;;;;;;;5012441;28;20294;-81
2023/12/29 04:53:14;;;;;;;6.03;1.50;;;;;;;;;;5012903;28;20199;-81
2023/12/29 04:55:46;;;;;;;9.35;1.67;;;;;;;;;;5008785;28;20240;-80
2023/12/29 04:58:16;;;;;;;8.55;1.63;;;;;;;;;;5012391;28;20235;-81
2023/12/29 05:00:46;;;;;;;8.63;1.60;;;;;;;;;;5010773;28;20294;-80
2023/12/29 05:03:16;;;;;;;8.85;1.80;;;;;;;;;;5009859;28;20211;-80
2023/12/29 05:05:46;;;;;;;9.05;1.85;;;;;;;;;;5011097;28;20217;-81
2023/12/29 05:08:16;;;;;;;4.93;1.50;;;;;;;;;;5011465;28;20736;-81
2023/12/29 05:10:48;;;;;;;4.97;1.45;;;;;;;;;;5011102;28;20206;-79
2023/12/29 05:13:18;;;;;;;5.13;1.50;;;;;;;;;;5011293;28;20196;-80
2023/12/29 05:15:48;;;;;;;9.80;1.95;;;;;;;;;;5011700;28;20258;-79
2023/12/29 05:18:18;;;;;;;7.65;1.52;;;;;;;;;;5011815;28;20231;-80
2023/12/29 05:20:48;;;;;;;6.88;1.58;;;;;;;;;;5011807;28;20293;-82
2023/12/29 05:23:18;;;;;;;7.68;1.75;;;;;;;;;;5013273;28;20207;-80
2023/12/29 05:25:50;;;;;;;8.38;1.40;;;;;;;;;;5013121;28;20245;-82
2023/12/29 05:28:20;;;;;;;6.85;1.40;;;;;;;;;;5013185;28;20635;-80
2023/12/29 05:30:49;;;;;;;6.43;1.42;;;;;;;;;;5012910;28;20210;-81
2023/12/29 05:33:19;;;;;;;7.70;1.63;;;;;;;;;;5013557;28;20718;-81
2023/12/29 05:35:49;;;;;;;9.52;1.63;;;;;;;;;;5012788;28;20540;-81
2023/12/29 05:38:19;;;;;;;6.40;1.50;;;;;;;;;;5016350;28;20226;-82
2023/12/29 05:40:51;;;;;;;8.05;1.60;;;;;;;;;;5016526;28;20207;-81
2023/12/29 05:43:21;;;;;;;7.07;1.50;;;;;;;;;;5015647;28;20278;-80
2023/12/29 05:45:51;;;;;;;4.65;1.40;;;;;;;;;;5016338;28;20289;-81
2023/12/29 05:48:23;;;;;;;7.22;1.50;;;;;;;;;;5016360;28;20666;-79
2023/12/29 05:50:53;;;;;;;8.77;1.40;;;;;;;;;;5016302;28;20187;-82
2023/12/29 05:53:23;;;;;;;5.70;1.40;;;;;;;;;;5016016;28;20290;-81
2023/12/29 05:55:55;;;;;;;6.55;1.50;;;;;;;;;;5012291;28;20297;-81
2023/12/29 05:58:25;;;;;;;6.15;1.77;;;;;;;;;;5015950;28;20238;-81
2023/12/29 06:00:58;;;;;;;4.43;1.42;;;;;;;;;;5016323;28;20250;-80
2023/12/29 06:03:28;;;;;;;8.43;1.50;;;;;;;;;;5016045;28;20194;-79
2023/12/29 06:05:58;;;;;;;7.97;1.50;;;;;;;;;;5016261;28;20232;-80
2023/12/29 06:08:28;;;;;;;10.80;1.63;;;;;;;;;;5016129;28;20289;-79
2023/12/29 06:11:00;;;;;;;6.97;1.67;;;;;;;;;;5016264;28;20748;-79
2023/12/29 06:13:31;;;;;;;9.05;1.50;;;;;;;;;;5016091;28;20202;-80
2023/12/29 06:16:01;;;;;;;7.05;1.63;;;;;;;;;;5015942;28;20191;-79
2023/12/29 06:18:31;;;;;;;6.18;1.45;;;;;;;;;;5015446;28;20321;-77
2023/12/29 06:21:01;;;;;;;7.38;1.63;;;;;;;;;;5016592;28;20242;-80
2023/12/29 06:23:31;;;;;;;8.27;1.33;;;;;;;;;;5015698;28;20633;-80
2023/12/29 06:26:03;;;;;;;6.05;1.33;;;;;;;;;;5015748;28;20207;-80
2023/12/29 06:28:33;;;;;;;7.32;1.52;;;;;;;;;;5015702;28;20278;-79
2023/12/29 06:31:03;;;;;;;7.82;1.60;;;;;;;;;;5015998;28;20199;-79
2023/12/29 06:33:33;;;;;;;9.48;1.35;;;;;;;;;;5015271;28;20290;-79
2023/12/29 06:36:03;;;;;;;8.80;1.80;;;;;;;;;;5015802;28;20199;-79
2023/12/29 06:38:33;;;;;;;8.85;1.77;;;;;;;;;;5015461;28;20318;-78
2023/12/29 06:41:05;;;;;;;6.30;1.67;;;;;;;;;;5015586;28;20195;-79
2023/12/29 06:43:35;;;;;;;5.13;1.92;;;;;;;;;;5015417;28;20566;-80
2023/12/29 06:46:06;;;;;;;7.53;1.60;;;;;;;;;;5015328;28;20313;-79
2023/12/29 06:48:36;;;;;;;5.93;1.65;;;;;;;;;;5014578;28;20197;-79
2023/12/29 06:51:06;;;;;;;5.60;1.60;;;;;;;;;;5015472;28;20755;-79
2023/12/29 06:53:36;;;;;;;5.72;1.77;;;;;;;;;;5015150;28;20570;-80
2023/12/29 06:56:08;;;;;;;9.23;1.85;;;;;;;;;;5012503;28;20242;-79
2023/12/29 06:58:38;;;;;;;7.78;1.90;;;;;;;;;;5014644;28;20235;-79
2023/12/29 07:01:08;;;;;;;7.95;1.75;;;;;;;;;;5014804;28;20235;-79
2023/12/29 07:03:38;;;;;;;6.18;1.80;;;;;;;;;;5015283;28;20290;-79
2023/12/29 07:06:08;;;;;;;6.45;1.67;;;;;;;;;;5015046;28;20250;-79
2023/12/29 07:08:38;;;;;;;7.00;1.98;;;;;;;;;;5015057;28;20287;-80
2023/12/29 07:11:15;;;;;;;5.72;1.90;;;;;;;;;;5014736;28;20203;-79
2023/12/29 07:13:45;;;;;;;7.25;1.92;;;;;;;;;;5014894;28;20659;-79
2023/12/29 07:16:15;;;;;;;7.07;1.80;;;;;;;;;;5014678;28;20246;-78
2023/12/29 07:18:45;;;;;;;6.65;2.03;;;;;;;;;;5014362;28;20317;-79
2023/12/29 07:21:15;;;;;;;6.53;1.73;;;;;;;;;;5010163;28;20195;-79
2023/12/29 07:23:45;;;;;;;8.00;1.67;;;;;;;;;;4999650;28;20539;-79
2023/12/29 07:26:17;;;;;;;6.35;1.55;;;;;;;;;;5012996;28;20222;-79
2023/12/29 07:28:47;;;;;;;6.72;1.50;;;;;;;;;;5013670;28;20274;-79
2023/12/29 07:31:17;;;;;;;9.88;2.30;;;;;;;;;;5008634;28;20195;-79
2023/12/29 07:33:47;;;;;;;7.72;1.60;;;;;;;;;;5005305;28;20205;-80
2023/12/29 07:36:17;;;;;;;4.53;1.70;;;;;;;;;;5013178;28;20569;-80
2023/12/29 07:38:47;;;;;;;6.57;1.65;;;;;;;;;;5008587;28;20318;-80
2023/12/29 07:41:19;;;;;;;6.53;1.65;;;;;;;;;;5001630;28;20302;-80
2023/12/29 07:43:50;;;;;;;8.10;1.80;;;;;;;;;;5029649;23;20238;-80
2023/12/29 07:46:27;;;;;;;7.28;1.90;;;;;;;;;;4978955;28;20214;-80
2023/12/29 07:48:57;;;;;;;6.95;2.28;;;;;;;;;;4994481;28;20206;-81
2023/12/29 07:51:27;;;;;;;9.13;1.80;;;;;;;;;;4992740;28;20199;-80
2023/12/29 07:53:57;;;;;;;6.35;2.05;;;;;;;;;;4992680;28;20287;-81
2023/12/29 07:56:29;;;;;;;7.47;1.95;;;;;;;;;;4992736;28;20206;-81
2023/12/29 07:58:59;;;;;;;6.82;1.60;;;;;;;;;;4991568;28;20635;-81
2023/12/29 08:01:29;;;;;;;7.18;1.60;;;;;;;;;;4990277;28;20662;-80
2023/12/29 08:03:59;;;;;;;11.02;1.95;;;;;;;;;;4992005;28;20295;-81
2023/12/29 08:06:28;;;;;;;6.93;1.80;;;;;;;;;;4992429;28;20203;-81
2023/12/29 08:08:58;;;;;;;8.18;1.80;;;;;;;;;;4990792;28;20204;-81
2023/12/29 08:11:30;;;;;;;8.25;1.92;;;;;;;;;;4993495;28;20561;-81
2023/12/29 08:14:00;;;;;;;11.52;5.78;;;;;;;;;;4989630;28;20578;-81
2023/12/29 08:16:30;;;;;;;10.02;4.78;;;;;;;;;;4991300;28;20677;-81
2023/12/29 08:19:00;;;;;;;115.40;74.95;;;;;;;;;;4991569;28;20223;-81
2023/12/29 08:21:30;;;;;;;28.85;17.35;;;;;;;;;;4991628;28;20214;-81
2023/12/29 08:24:00;;;;;;;13.23;6.35;;;;;;;;;;4990599;28;20206;-81
2023/12/29 08:26:32;;;;;;;8.45;2.40;;;;;;;;;;4988495;28;20727;-81
2023/12/29 08:29:02;;;;;;;9.43;2.03;;;;;;;;;;4991011;28;20544;-81
2023/12/29 08:31:31;;;;;;;6.10;1.95;;;;;;;;;;4991919;28;20200;-77
2023/12/29 08:34:01;;;;;;;6.93;2.00;;;;;;;;;;4991630;28;20203;-81
2023/12/29 08:36:31;;;;;;;9.23;2.15;;;;;;;;;;4989071;28;20209;-82
2023/12/29 08:39:01;;;;;;;8.57;2.10;;;;;;;;;;4984229;28;20314;-82
2023/12/29 08:41:33;;;;;;;8.27;2.05;;;;;;;;;;4994160;28;20200;-82
2023/12/29 08:44:03;;;;;;;8.52;1.90;;;;;;;;;;5007751;28;20227;-81
2023/12/29 08:46:33;;;;;;;12.63;2.58;;;;;;;;;;5009316;28;20202;-81
2023/12/29 08:49:03;;;;;;;7.35;2.10;;;;;;;;;;5012092;28;20206;-81
2023/12/29 08:51:33;;;;;;;7.60;2.00;;;;;;;;;;5012754;28;20209;-81
2023/12/29 08:54:03;;;;;;;11.55;2.10;;;;;;;;;;5012331;28;20198;-81
2023/12/29 08:56:34;;;;;;;10.70;2.42;;;;;;;;;;5011628;28;20202;-81
2023/12/29 08:59:04;;;;;;;7.60;2.00;;;;;;;;;;5011796;28;20237;-87
2023/12/29 09:01:34;;;;;;;13.35;2.22;;;;;;;;;;5008385;28;20681;-79
2023/12/29 09:04:04;;;;;;;12.07;4.00;;;;;;;;;;5009875;28;20573;-78
2023/12/29 09:06:34;;;;;;;7.97;2.38;;;;;;;;;;5011118;28;20651;-81
2023/12/29 09:09:04;;;;;;;8.00;2.22;;;;;;;;;;5012170;28;20229;-81
2023/12/29 09:11:36;;;;;;;9.05;3.10;;;;;;;;;;5008631;28;20651;-80
2023/12/29 09:14:06;;;;;;;17.73;9.00;;;;;;;;;;5014752;28;20205;-81
2023/12/29 09:16:36;;;;;;;18.33;5.70;;;;;;;;;;5015828;28;20209;-83
2023/12/29 09:19:06;;;;;;;7.18;1.98;;;;;;;;;;5015689;28;20237;-82
2023/12/29 09:21:37;;;;;;;8.40;2.05;;;;;;;;;;5015967;28;20199;-84
2023/12/29 09:24:08;;;;;;;7.78;2.10;;;;;;;;;;5015422;28;20214;-86
2023/12/29 09:26:39;;;;;;;6.65;2.20;;;;;;;;;;5013597;28;20559;-81
2023/12/29 09:29:09;;;;;;;6.95;2.28;;;;;;;;;;5015870;28;20213;-81
2023/12/29 09:31:39;;;;;;;8.32;2.20;;;;;;;;;;5015249;28;20199;-81
2023/12/29 09:34:09;;;;;;;8.63;2.20;;;;;;;;;;5015935;28;20194;-81
2023/12/29 09:36:39;;;;;;;8.07;2.25;;;;;;;;;;5016159;28;20209;-81
2023/12/29 09:39:09;;;;;;;6.95;1.90;;;;;;;;;;5014779;28;20229;-81
2023/12/29 09:41:42;;;;;;;6.53;2.13;;;;;;;;;;5015796;28;20241;-81
2023/12/29 09:44:14;;;;;;;7.43;2.13;;;;;;;;;;5015446;28;20231;-82
2023/12/29 09:46:44;;;;;;;8.40;2.08;;;;;;;;;;5015786;28;20199;-80
2023/12/29 09:49:15;;;;;;;8.18;2.00;;;;;;;;;;5013946;28;20227;-81
2023/12/29 09:51:45;;;;;;;10.23;2.20;;;;;;;;;;5015885;28;20201;-81
2023/12/29 09:54:16;;;;;;;9.23;2.08;;;;;;;;;;5018103;28;20198;-81
2023/12/29 09:56:48;;;;;;;10.48;2.17;;;;;;;;;;5019540;28;20221;-81
2023/12/29 09:59:18;;;;;;;5.97;1.83;;;;;;;;;;5015650;28;20214;-81
2023/12/29 10:01:48;;;;;;;9.00;2.00;;;;;;;;;;5005285;28;20225;-81
2023/12/29 10:04:18;;;;;;;4.50;1.70;;;;;;;;;;5007522;28;20238;-81
2023/12/29 10:06:50;;;;;;;9.90;2.40;;;;;;;;;;5013113;28;20202;-82
2023/12/29 10:09:20;;;;;;;6.55;2.15;;;;;;;;;;5014006;28;20195;-81
2023/12/29 10:11:52;;;;;;;10.43;2.22;;;;;;;;;;5005750;28;20206;-81
2023/12/29 10:14:25;;;;;;;7.85;2.20;;;;;;;;;;5012565;28;20230;-81
2023/12/29 10:16:56;;;;;;;5.97;2.15;;;;;;;;;;5015514;28;20199;-81
2023/12/29 10:19:30;;;;;;;5.07;1.90;;;;;;;;;;5012302;28;20219;-80
2023/12/29 10:22:04;;;;;;;7.53;2.10;;;;;;;;;;5005499;28;20199;-80
2023/12/29 10:24:34;;;;;;;7.90;1.90;;;;;;;;;;5008013;28;20202;-83
2023/12/29 10:27:06;;;;;;;6.72;1.98;;;;;;;;;;5004692;28;20660;-80
2023/12/29 10:29:37;;;;;;;9.07;2.25;;;;;;;;;;5010884;28;20282;-80
2023/12/29 10:32:07;;;;;;;6.40;1.92;;;;;;;;;;5002404;28;20266;-81
2023/12/29 10:34:37;;;;;;;4.55;1.40;;;;;;;;;;5004705;28;20205;-80
2023/12/29 10:37:13;;;;;;;5.32;1.50;;;;;;;;;;5008115;28;20206;-82
2023/12/29 10:39:58;;;;;;;4.00;1.30;;;;;;;;;;5013381;28;20211;-80
2023/12/29 10:42:30;;;;;;;2.63;1.30;;;;;;;;;;5007849;28;20293;-80
2023/12/29 10:45:08;;;;;;;2.67;1.25;;;;;;;;;;4994366;28;20211;-80
2023/12/29 10:47:40;;;;;;;2.10;1.00;;;;;;;;;;4983138;28;20195;-80
2023/12/29 10:50:10;;;;;;;1.67;1.10;;;;;;;;;;4984924;28;20199;-79
2023/12/29 10:52:42;;;;;;;1.60;1.05;;;;;;;;;;4993301;28;20200;-79
2023/12/29 10:55:12;;;;;;;3.42;0.90;;;;;;;;;;4987618;28;20281;-80
2023/12/29 10:57:44;;;;;;;2.80;0.95;;;;;;;;;;4988376;28;20204;-79
2023/12/29 11:00:16;;;;;;;3.00;1.13;;;;;;;;;;4993374;28;20216;-79
2023/12/29 11:02:45;;;;;;;3.97;1.00;;;;;;;;;;4992036;28;20288;-79
2023/12/29 11:05:16;;;;;;;1.92;1.00;;;;;;;;;;4987600;28;20250;-79
2023/12/29 11:07:46;;;;;;;2.88;1.52;;;;;;;;;;4991019;28;20287;-80
2023/12/29 11:10:16;;;;;;;2.58;1.40;;;;;;;;;;4989454;28;20666;-80
2023/12/29 11:12:48;;;;;;;3.25;1.50;;;;;;;;;;4994261;28;20204;-79
2023/12/29 11:15:18;;;;;;;3.97;1.48;;;;;;;;;;4977859;28;20200;-80
2023/12/29 11:17:49;;;;;;;4.47;1.40;;;;;;;;;;4990705;28;20217;-80
2023/12/29 11:20:19;;;;;;;3.25;1.30;;;;;;;;;;4990883;28;20248;-80
2023/12/29 11:22:50;;;;;;;1.98;1.10;;;;;;;;;;4980406;28;20670;-81
2023/12/29 11:25:20;;;;;;;3.08;1.38;;;;;;;;;;4992569;28;20570;-80
2023/12/29 11:27:52;;;;;;;3.28;1.30;;;;;;;;;;4990288;28;20674;-79
2023/12/29 11:30:22;;;;;;;3.40;1.33;;;;;;;;;;4987818;28;20206;-79
2023/12/29 11:32:54;;;;;;;2.10;1.27;;;;;;;;;;4983474;28;20303;-79
2023/12/29 11:35:27;;;;;;;4.38;1.75;;;;;;;;;;4992608;28;20298;-79
2023/12/29 11:38:05;;;;;;;6.47;1.95;;;;;;;;;;4987264;28;20210;-79
2023/12/29 11:40:37;;;;;;;4.13;1.83;;;;;;;;;;4990401;28;20230;-80
2023/12/29 11:43:11;;;;;;;5.25;1.80;;;;;;;;;;4993045;28;20240;-81
2023/12/29 11:45:40;;;;;;;3.50;1.70;;;;;;;;;;5006467;28;20527;-80
2023/12/29 11:48:11;;;;;;;3.78;1.92;;;;;;;;;;5009805;28;20673;-79
2023/12/29 11:50:42;;;;;;;3.45;1.75;;;;;;;;;;5013507;28;20257;-79
2023/12/29 11:53:12;;;;;;;4.40;1.75;;;;;;;;;;5004953;28;20203;-80
2023/12/29 11:55:43;;;;;;;3.83;1.77;;;;;;;;;;4999456;28;20203;-79
2023/12/29 12:01:14;;;;;;;4.57;1.52;;;;;;;;;;5090290;27;20945;-79
2023/12/29 12:03:43;;;;;;;3.97;1.73;;;;;;;;;;5089711;28;20192;-78
2023/12/29 12:06:13;;;;;;;3.92;1.90;;;;;;;;;;5088448;28;20192;-81
2023/12/29 12:08:43;;;;;;;3.50;1.83;;;;;;;;;;5076028;28;20200;-80
2023/12/29 12:11:31;;;;;;;5.28;1.83;;;;;;;;;;5085652;28;20205;-80
2023/12/29 12:14:01;;;;;;;5.63;1.60;;;;;;;;;;5089661;28;20200;-81
2023/12/29 12:16:49;;;;;;;3.65;1.77;;;;;;;;;;5089983;28;20196;-81
2023/12/29 12:19:20;;;;;;;3.58;2.03;;;;;;;;;;5084194;28;20228;-80
2023/12/29 12:21:50;;;;;;;4.47;1.80;;;;;;;;;;5089394;28;20196;-81
2023/12/29 12:24:22;;;;;;;3.63;1.92;;;;;;;;;;5089566;28;20196;-81
2023/12/29 12:26:52;;;;;;;4.00;1.70;;;;;;;;;;5090056;28;20196;-82
2023/12/29 12:29:22;;;;;;;4.40;2.00;;;;;;;;;;5089565;28;20205;-81
2023/12/29 12:31:56;;;;;;;4.22;1.58;;;;;;;;;;5089897;28;20201;-80
2023/12/29 12:34:28;;;;;;;6.32;1.83;;;;;;;;;;5089653;28;20694;-80
2023/12/29 12:36:59;;;;;;;6.03;1.65;;;;;;;;;;5089709;28;20249;-80
2023/12/29 12:39:41;;;;;;;4.00;1.70;;;;;;;;;;5075077;28;20291;-81
2023/12/29 12:42:10;;;;;;;6.47;2.22;;;;;;;;;;5076832;28;20247;-81
2023/12/29 12:44:42;;;;;;;3.25;1.75;;;;;;;;;;5069468;28;20649;-81
2023/12/29 12:47:13;;;;;;;3.40;1.70;;;;;;;;;;5068975;28;20200;-81
2023/12/29 12:49:44;;;;;;;5.82;1.70;;;;;;;;;;5067467;28;20292;-80
2023/12/29 12:52:14;;;;;;;6.57;1.92;;;;;;;;;;5065007;28;20200;-80
2023/12/29 12:54:44;;;;;;;2.90;1.80;;;;;;;;;;5069186;28;20205;-81
2023/12/29 12:57:14;;;;;;;4.07;1.75;;;;;;;;;;5069090;28;20201;-82
2023/12/29 12:59:44;;;;;;;4.35;1.85;;;;;;;;;;5067562;28;20229;-81
2023/12/29 13:02:14;;;;;;;5.03;2.22;;;;;;;;;;5064198;28;20201;-82
2023/12/29 13:04:46;;;;;;;4.95;1.70;;;;;;;;;;5068170;28;20201;-81
2023/12/29 13:07:18;;;;;;;4.60;1.70;;;;;;;;;;5066695;28;20202;-82
2023/12/29 13:09:50;;;;;;;3.90;1.77;;;;;;;;;;5059766;28;20286;-81
2023/12/29 13:12:20;;;;;;;4.55;1.60;;;;;;;;;;5046981;28;20205;-80
2023/12/29 13:14:51;;;;;;;2.83;1.70;;;;;;;;;;5055558;28;20197;-81
2023/12/29 13:17:22;;;;;;;5.03;1.70;;;;;;;;;;5055516;28;20229;-80
2023/12/29 13:19:59;;;;;;;3.58;1.90;;;;;;;;;;5052530;28;20218;-80
2023/12/29 13:22:29;;;;;;;2.88;1.92;;;;;;;;;;5048301;28;20620;-81
2023/12/29 13:24:59;;;;;;;2.97;1.70;;;;;;;;;;5054532;28;20224;-80
2023/12/29 13:27:30;;;;;;;3.55;1.95;;;;;;;;;;5046922;28;20197;-80
2023/12/29 13:29:59;;;;;;;3.72;1.90;;;;;;;;;;5055775;28;20678;-80
2023/12/29 13:32:30;;;;;;;3.30;1.88;;;;;;;;;;5054885;28;20203;-81
2023/12/29 13:35:07;;;;;;;5.25;2.10;;;;;;;;;;5055143;28;20186;-80
2023/12/29 13:37:38;;;;;;;3.22;1.70;;;;;;;;;;5051161;28;20671;-80
2023/12/29 13:40:13;;;;;;;5.28;1.98;;;;;;;;;;5055532;28;20256;-81
2023/12/29 13:42:44;;;;;;;4.97;2.10;;;;;;;;;;5066113;22;20236;-81
2023/12/29 13:45:15;;;;;;;3.67;2.20;;;;;;;;;;5060087;28;20197;-80
2023/12/29 13:47:45;;;;;;;6.78;2.45;;;;;;;;;;5056741;28;20288;-81
2023/12/29 13:50:16;;;;;;;4.80;1.83;;;;;;;;;;5057654;28;20201;-80
2023/12/29 13:52:46;;;;;;;6.47;2.50;;;;;;;;;;5075309;28;20276;-80
2023/12/29 13:55:24;;;;;;;5.75;2.30;;;;;;;;;;5073951;28;20201;-80
2023/12/29 13:57:54;;;;;;;6.03;2.22;;;;;;;;;;5055068;28;20201;-80
2023/12/29 14:00:25;;;;;;;4.90;2.05;;;;;;;;;;5054882;28;20275;-80
2023/12/29 14:03:04;;;;;;;6.32;2.30;;;;;;;;;;5055206;28;20201;-80
2023/12/29 14:05:39;;;;;;;4.68;2.10;;;;;;;;;;5073994;28;20280;-80
2023/12/29 14:08:12;;;;;;;8.75;2.45;;;;;;;;;;5074989;28;20640;-80
2023/12/29 14:10:42;;;;;;;5.70;2.35;;;;;;;;;;5074899;28;20555;-80
2023/12/29 14:13:13;;;;;;;7.43;2.25;;;;;;;;;;5075099;28;20201;-80
2023/12/29 14:15:43;;;;;;;6.35;2.08;;;;;;;;;;5074587;28;20195;-80
2023/12/29 14:18:17;;;;;;;4.80;2.10;;;;;;;;;;5069007;28;20185;-81
2023/12/29 14:20:49;;;;;;;6.00;2.25;;;;;;;;;;5054705;28;20225;-80
2023/12/29 14:23:21;;;;;;;5.35;2.22;;;;;;;;;;5053730;28;20186;-80
2023/12/29 14:25:51;;;;;;;4.38;2.00;;;;;;;;;;5071971;28;20196;-81
2023/12/29 14:28:22;;;;;;;7.53;2.20;;;;;;;;;;5072790;28;20566;-80
2023/12/29 14:30:52;;;;;;;3.83;1.98;;;;;;;;;;5074349;28;20195;-80
2023/12/29 14:33:22;;;;;;;5.22;2.10;;;;;;;;;;5058404;28;20204;-80
2023/12/29 14:35:54;;;;;;;5.93;2.10;;;;;;;;;;5054427;28;20208;-80
2023/12/29 14:38:24;;;;;;;9.05;2.60;;;;;;;;;;5054473;28;20212;-80
2023/12/29 14:40:54;;;;;;;5.15;1.85;;;;;;;;;;5071817;28;20213;-80
2023/12/29 14:43:24;;;;;;;4.50;1.98;;;;;;;;;;5062109;28;20230;-81
2023/12/29 14:45:54;;;;;;;3.28;1.48;;;;;;;;;;5063775;28;20212;-80
2023/12/29 14:48:25;;;;;;;2.95;1.45;;;;;;;;;;5055159;28;20197;-81
2023/12/29 14:50:57;;;;;;;4.20;1.38;;;;;;;;;;5052927;28;20663;-81
2023/12/29 14:53:27;;;;;;;4.03;1.55;;;;;;;;;;5054437;28;20232;-81
2023/12/29 14:55:57;;;;;;;3.45;1.40;;;;;;;;;;5053645;28;20205;-81
2023/12/29 14:58:27;;;;;;;3.10;1.40;;;;;;;;;;5053534;28;20193;-81
2023/12/29 15:00:57;;;;;;;2.38;1.30;;;;;;;;;;5053412;28;20229;-81
2023/12/29 15:03:27;;;;;;;2.95;1.30;;;;;;;;;;5037628;28;20669;-81
2023/12/29 15:05:59;;;;;;;1.70;0.90;;;;;;;;;;5033953;28;20201;-81
2023/12/29 15:08:34;;;;;;;1.55;1.13;;;;;;;;;;5039920;28;20188;-81